sensor_id;sensor_type;location;lat;lon;timestamp;P1;durP1;ratioP1;P2;durP2;ratioP2
8656;SDS011;4366;50.764;7.184;2023-04-15T00:02:14;2.20;;;2.10;;
8656;SDS011;4366;50.764;7.184;2023-04-15T00:07:16;1.90;;;1.80;;
8656;SDS011;4366;50.764;7.184;2023-04-15T00:12:18;2.00;;;1.90;;
8656;SDS011;4366;50.764;7.184;2023-04-15T00:17:20;2.40;;;2.20;;
8656;SDS011;4366;50.764;7.184;2023-04-15T00:22:21;2.70;;;2.00;;
8656;SDS011;4366;50.764;7.184;2023-04-15T00:27:23;2.57;;;2.03;;
8656;SDS011;4366;50.764;7.184;2023-04-15T00:32:25;2.20;;;2.00;;
8656;SDS011;4366;50.764;7.184;2023-04-15T00:37:26;3.40;;;2.33;;
8656;SDS011;4366;50.764;7.184;2023-04-15T00:42:28;1.87;;;1.80;;
8656;SDS011;4366;50.764;7.184;2023-04-15T00:47:30;2.10;;;1.90;;
8656;SDS011;4366;50.764;7.184;2023-04-15T00:52:32;2.17;;;2.07;;
8656;SDS011;4366;50.764;7.184;2023-04-15T00:57:35;1.90;;;1.90;;
8656;SDS011;4366;50.764;7.184;2023-04-15T01:02:37;1.97;;;1.87;;
8656;SDS011;4366;50.764;7.184;2023-04-15T01:07:39;2.13;;;2.03;;
8656;SDS011;4366;50.764;7.184;2023-04-15T01:12:41;2.40;;;2.30;;
8656;SDS011;4366;50.764;7.184;2023-04-15T01:17:43;2.30;;;2.20;;
8656;SDS011;4366;50.764;7.184;2023-04-15T01:22:45;1.97;;;1.90;;
8656;SDS011;4366;50.764;7.184;2023-04-15T01:27:51;1.83;;;1.83;;
8656;SDS011;4366;50.764;7.184;2023-04-15T01:32:53;2.10;;;2.00;;
8656;SDS011;4366;50.764;7.184;2023-04-15T01:37:54;1.80;;;1.80;;
8656;SDS011;4366;50.764;7.184;2023-04-15T01:43:05;1.83;;;1.83;;
8656;SDS011;4366;50.764;7.184;2023-04-15T01:48:07;2.47;;;2.30;;
8656;SDS011;4366;50.764;7.184;2023-04-15T01:53:11;2.40;;;2.20;;
8656;SDS011;4366;50.764;7.184;2023-04-15T01:58:14;1.80;;;1.80;;
8656;SDS011;4366;50.764;7.184;2023-04-15T02:03:16;2.27;;;2.17;;
8656;SDS011;4366;50.764;7.184;2023-04-15T02:08:18;2.20;;;2.10;;
8656;SDS011;4366;50.764;7.184;2023-04-15T02:13:20;2.47;;;2.23;;
8656;SDS011;4366;50.764;7.184;2023-04-15T02:18:22;2.20;;;2.00;;
8656;SDS011;4366;50.764;7.184;2023-04-15T02:23:28;1.97;;;1.90;;
8656;SDS011;4366;50.764;7.184;2023-04-15T02:28:31;2.47;;;2.30;;
8656;SDS011;4366;50.764;7.184;2023-04-15T02:33:33;2.70;;;2.50;;
8656;SDS011;4366;50.764;7.184;2023-04-15T02:38:35;2.50;;;2.40;;
8656;SDS011;4366;50.764;7.184;2023-04-15T02:43:38;2.60;;;2.40;;
8656;SDS011;4366;50.764;7.184;2023-04-15T02:48:41;2.17;;;2.07;;
8656;SDS011;4366;50.764;7.184;2023-04-15T02:53:43;2.13;;;2.03;;
8656;SDS011;4366;50.764;7.184;2023-04-15T02:58:44;2.50;;;2.40;;
8656;SDS011;4366;50.764;7.184;2023-04-15T03:03:46;2.53;;;2.20;;
8656;SDS011;4366;50.764;7.184;2023-04-15T03:08:48;2.00;;;2.00;;
8656;SDS011;4366;50.764;7.184;2023-04-15T03:13:51;2.20;;;2.10;;
8656;SDS011;4366;50.764;7.184;2023-04-15T03:19:02;2.47;;;2.30;;
8656;SDS011;4366;50.764;7.184;2023-04-15T03:24:06;2.70;;;2.50;;
8656;SDS011;4366;50.764;7.184;2023-04-15T03:29:09;2.73;;;2.50;;
8656;SDS011;4366;50.764;7.184;2023-04-15T03:34:12;2.27;;;2.17;;
8656;SDS011;4366;50.764;7.184;2023-04-15T03:39:14;2.13;;;2.03;;
8656;SDS011;4366;50.764;7.184;2023-04-15T03:44:16;2.13;;;2.03;;
8656;SDS011;4366;50.764;7.184;2023-04-15T03:49:17;2.70;;;2.50;;
8656;SDS011;4366;50.764;7.184;2023-04-15T03:54:21;2.33;;;2.23;;
8656;SDS011;4366;50.764;7.184;2023-04-15T03:59:23;2.00;;;2.00;;
8656;SDS011;4366;50.764;7.184;2023-04-15T04:04:24;2.87;;;2.20;;
8656;SDS011;4366;50.764;7.184;2023-04-15T04:09:28;2.43;;;2.10;;
8656;SDS011;4366;50.764;7.184;2023-04-15T04:14:30;2.97;;;2.23;;
8656;SDS011;4366;50.764;7.184;2023-04-15T04:19:31;2.33;;;2.23;;
8656;SDS011;4366;50.764;7.184;2023-04-15T04:24:33;2.50;;;2.30;;
8656;SDS011;4366;50.764;7.184;2023-04-15T04:29:35;2.53;;;2.43;;
8656;SDS011;4366;50.764;7.184;2023-04-15T04:34:36;2.43;;;2.33;;
8656;SDS011;4366;50.764;7.184;2023-04-15T04:39:38;2.40;;;2.30;;
8656;SDS011;4366;50.764;7.184;2023-04-15T04:44:40;2.30;;;2.20;;
8656;SDS011;4366;50.764;7.184;2023-04-15T04:49:42;2.30;;;2.20;;
8656;SDS011;4366;50.764;7.184;2023-04-15T04:54:57;2.30;;;2.20;;
8656;SDS011;4366;50.764;7.184;2023-04-15T04:59:58;2.83;;;2.30;;
8656;SDS011;4366;50.764;7.184;2023-04-15T05:05:00;2.97;;;2.77;;
8656;SDS011;4366;50.764;7.184;2023-04-15T05:10:03;2.50;;;2.40;;
8656;SDS011;4366;50.764;7.184;2023-04-15T05:15:05;2.20;;;2.10;;
8656;SDS011;4366;50.764;7.184;2023-04-15T05:20:07;2.30;;;2.20;;
8656;SDS011;4366;50.764;7.184;2023-04-15T05:25:10;2.27;;;2.17;;
8656;SDS011;4366;50.764;7.184;2023-04-15T05:30:12;2.43;;;2.33;;
8656;SDS011;4366;50.764;7.184;2023-04-15T05:35:14;2.40;;;2.30;;
8656;SDS011;4366;50.764;7.184;2023-04-15T05:40:17;2.57;;;2.47;;
8656;SDS011;4366;50.764;7.184;2023-04-15T05:45:19;2.37;;;2.20;;
8656;SDS011;4366;50.764;7.184;2023-04-15T05:50:20;2.77;;;2.50;;
8656;SDS011;4366;50.764;7.184;2023-04-15T05:55:22;2.23;;;2.13;;
8656;SDS011;4366;50.764;7.184;2023-04-15T06:00:24;2.20;;;2.10;;
8656;SDS011;4366;50.764;7.184;2023-04-15T06:05:26;2.43;;;2.30;;
8656;SDS011;4366;50.764;7.184;2023-04-15T06:10:28;2.77;;;2.00;;
8656;SDS011;4366;50.764;7.184;2023-04-15T06:15:29;2.30;;;2.10;;
8656;SDS011;4366;50.764;7.184;2023-04-15T06:20:32;1.87;;;1.77;;
8656;SDS011;4366;50.764;7.184;2023-04-15T06:25:33;2.13;;;2.03;;
8656;SDS011;4366;50.764;7.184;2023-04-15T06:30:35;2.20;;;2.10;;
8656;SDS011;4366;50.764;7.184;2023-04-15T06:35:37;1.90;;;1.80;;
8656;SDS011;4366;50.764;7.184;2023-04-15T06:40:40;1.90;;;1.80;;
8656;SDS011;4366;50.764;7.184;2023-04-15T06:45:44;1.67;;;1.63;;
8656;SDS011;4366;50.764;7.184;2023-04-15T06:50:48;1.93;;;1.83;;
8656;SDS011;4366;50.764;7.184;2023-04-15T06:55:49;1.80;;;1.70;;
8656;SDS011;4366;50.764;7.184;2023-04-15T07:00:52;2.63;;;2.43;;
8656;SDS011;4366;50.764;7.184;2023-04-15T07:05:55;1.90;;;1.80;;
8656;SDS011;4366;50.764;7.184;2023-04-15T07:10:56;2.33;;;2.00;;
8656;SDS011;4366;50.764;7.184;2023-04-15T07:15:58;1.93;;;1.80;;
8656;SDS011;4366;50.764;7.184;2023-04-15T07:21:01;2.60;;;2.40;;
8656;SDS011;4366;50.764;7.184;2023-04-15T07:26:03;3.77;;;2.23;;
8656;SDS011;4366;50.764;7.184;2023-04-15T07:31:04;2.03;;;1.90;;
8656;SDS011;4366;50.764;7.184;2023-04-15T07:36:06;2.00;;;1.90;;
8656;SDS011;4366;50.764;7.184;2023-04-15T07:41:08;1.90;;;1.80;;
8656;SDS011;4366;50.764;7.184;2023-04-15T07:46:09;2.53;;;2.33;;
8656;SDS011;4366;50.764;7.184;2023-04-15T07:51:12;2.00;;;1.90;;
8656;SDS011;4366;50.764;7.184;2023-04-15T07:56:13;1.93;;;1.83;;
8656;SDS011;4366;50.764;7.184;2023-04-15T08:01:15;2.23;;;2.03;;
8656;SDS011;4366;50.764;7.184;2023-04-15T08:06:17;2.33;;;2.13;;
8656;SDS011;4366;50.764;7.184;2023-04-15T08:11:19;3.50;;;2.17;;
8656;SDS011;4366;50.764;7.184;2023-04-15T08:16:22;1.83;;;1.73;;
8656;SDS011;4366;50.764;7.184;2023-04-15T08:21:25;2.60;;;2.40;;
8656;SDS011;4366;50.764;7.184;2023-04-15T08:26:27;1.93;;;1.83;;
8656;SDS011;4366;50.764;7.184;2023-04-15T08:31:29;1.80;;;1.70;;
8656;SDS011;4366;50.764;7.184;2023-04-15T08:36:31;1.80;;;1.70;;
8656;SDS011;4366;50.764;7.184;2023-04-15T08:41:39;1.63;;;1.27;;
8656;SDS011;4366;50.764;7.184;2023-04-15T08:46:46;1.27;;;1.17;;
8656;SDS011;4366;50.764;7.184;2023-04-15T08:51:48;2.00;;;1.40;;
8656;SDS011;4366;50.764;7.184;2023-04-15T08:56:50;1.43;;;1.20;;
8656;SDS011;4366;50.764;7.184;2023-04-15T09:01:52;1.10;;;1.10;;
8656;SDS011;4366;50.764;7.184;2023-04-15T09:06:55;0.93;;;0.93;;
8656;SDS011;4366;50.764;7.184;2023-04-15T09:11:57;1.83;;;1.00;;
8656;SDS011;4366;50.764;7.184;2023-04-15T09:17:00;1.30;;;1.20;;
8656;SDS011;4366;50.764;7.184;2023-04-15T09:22:03;1.00;;;0.90;;
8656;SDS011;4366;50.764;7.184;2023-04-15T09:27:05;1.03;;;1.03;;
8656;SDS011;4366;50.764;7.184;2023-04-15T09:32:08;1.20;;;1.20;;
8656;SDS011;4366;50.764;7.184;2023-04-15T09:37:11;0.70;;;0.70;;
8656;SDS011;4366;50.764;7.184;2023-04-15T09:42:32;0.57;;;0.57;;
8656;SDS011;4366;50.764;7.184;2023-04-15T09:47:33;0.60;;;0.60;;
8656;SDS011;4366;50.764;7.184;2023-04-15T09:52:39;0.80;;;0.80;;
8656;SDS011;4366;50.764;7.184;2023-04-15T09:57:43;0.63;;;0.63;;
8656;SDS011;4366;50.764;7.184;2023-04-15T10:02:47;0.80;;;0.80;;
8656;SDS011;4366;50.764;7.184;2023-04-15T10:07:52;1.90;;;0.63;;
8656;SDS011;4366;50.764;7.184;2023-04-15T10:12:53;0.60;;;0.60;;
8656;SDS011;4366;50.764;7.184;2023-04-15T10:17:56;0.40;;;0.40;;
8656;SDS011;4366;50.764;7.184;2023-04-15T10:22:58;0.60;;;0.60;;
8656;SDS011;4366;50.764;7.184;2023-04-15T10:28:01;0.70;;;0.67;;
8656;SDS011;4366;50.764;7.184;2023-04-15T10:33:03;0.80;;;0.80;;
8656;SDS011;4366;50.764;7.184;2023-04-15T10:43:38;1.10;;;1.00;;
8656;SDS011;4366;50.764;7.184;2023-04-15T10:48:45;0.53;;;0.53;;
8656;SDS011;4366;50.764;7.184;2023-04-15T10:53:48;1.00;;;0.70;;
8656;SDS011;4366;50.764;7.184;2023-04-15T10:58:50;0.80;;;0.80;;
8656;SDS011;4366;50.764;7.184;2023-04-15T11:03:52;0.60;;;0.60;;
8656;SDS011;4366;50.764;7.184;2023-04-15T11:08:56;0.90;;;0.90;;
8656;SDS011;4366;50.764;7.184;2023-04-15T11:14:01;1.03;;;1.03;;
8656;SDS011;4366;50.764;7.184;2023-04-15T11:19:03;0.90;;;0.90;;
8656;SDS011;4366;50.764;7.184;2023-04-15T11:24:05;1.07;;;1.07;;
8656;SDS011;4366;50.764;7.184;2023-04-15T11:29:07;1.10;;;1.10;;
8656;SDS011;4366;50.764;7.184;2023-04-15T11:34:08;1.13;;;1.13;;
8656;SDS011;4366;50.764;7.184;2023-04-15T11:39:10;1.27;;;1.20;;
8656;SDS011;4366;50.764;7.184;2023-04-15T11:44:15;1.43;;;1.43;;
8656;SDS011;4366;50.764;7.184;2023-04-15T11:49:27;1.17;;;1.17;;
8656;SDS011;4366;50.764;7.184;2023-04-15T11:54:29;1.53;;;1.43;;
8656;SDS011;4366;50.764;7.184;2023-04-15T11:59:40;1.27;;;1.17;;
8656;SDS011;4366;50.764;7.184;2023-04-15T12:04:46;1.10;;;1.10;;
8656;SDS011;4366;50.764;7.184;2023-04-15T12:09:53;1.40;;;1.30;;
8656;SDS011;4366;50.764;7.184;2023-04-15T12:14:56;1.20;;;1.20;;
8656;SDS011;4366;50.764;7.184;2023-04-15T12:19:59;1.30;;;1.30;;
8656;SDS011;4366;50.764;7.184;2023-04-15T12:25:01;1.00;;;1.00;;
8656;SDS011;4366;50.764;7.184;2023-04-15T12:30:06;1.70;;;1.60;;
8656;SDS011;4366;50.764;7.184;2023-04-15T12:35:08;1.40;;;1.30;;
8656;SDS011;4366;50.764;7.184;2023-04-15T12:40:10;1.20;;;1.20;;
8656;SDS011;4366;50.764;7.184;2023-04-15T12:45:11;1.30;;;1.30;;
8656;SDS011;4366;50.764;7.184;2023-04-15T12:50:13;1.77;;;1.67;;
8656;SDS011;4366;50.764;7.184;2023-04-15T12:55:15;1.53;;;1.43;;
8656;SDS011;4366;50.764;7.184;2023-04-15T13:00:17;1.77;;;1.67;;
8656;SDS011;4366;50.764;7.184;2023-04-15T13:05:19;1.73;;;1.63;;
8656;SDS011;4366;50.764;7.184;2023-04-15T13:10:20;1.70;;;1.60;;
8656;SDS011;4366;50.764;7.184;2023-04-15T13:15:22;1.73;;;1.63;;
8656;SDS011;4366;50.764;7.184;2023-04-15T13:20:24;1.97;;;1.87;;
8656;SDS011;4366;50.764;7.184;2023-04-15T13:25:27;2.10;;;1.90;;
8656;SDS011;4366;50.764;7.184;2023-04-15T13:30:28;1.80;;;1.70;;
8656;SDS011;4366;50.764;7.184;2023-04-15T13:35:34;1.80;;;1.70;;
8656;SDS011;4366;50.764;7.184;2023-04-15T13:40:37;1.90;;;1.80;;
8656;SDS011;4366;50.764;7.184;2023-04-15T13:45:39;1.97;;;1.87;;
8656;SDS011;4366;50.764;7.184;2023-04-15T13:50:41;2.20;;;2.10;;
8656;SDS011;4366;50.764;7.184;2023-04-15T13:55:45;2.07;;;1.97;;
8656;SDS011;4366;50.764;7.184;2023-04-15T14:00:47;2.20;;;2.10;;
8656;SDS011;4366;50.764;7.184;2023-04-15T14:05:50;2.40;;;2.20;;
8656;SDS011;4366;50.764;7.184;2023-04-15T14:10:56;2.50;;;2.30;;
8656;SDS011;4366;50.764;7.184;2023-04-15T14:15:58;2.47;;;2.27;;
8656;SDS011;4366;50.764;7.184;2023-04-15T14:20:59;2.80;;;2.60;;
8656;SDS011;4366;50.764;7.184;2023-04-15T14:26:01;3.40;;;3.10;;
8656;SDS011;4366;50.764;7.184;2023-04-15T14:31:04;3.93;;;3.00;;
8656;SDS011;4366;50.764;7.184;2023-04-15T14:36:06;3.03;;;2.83;;
8656;SDS011;4366;50.764;7.184;2023-04-15T14:41:10;2.80;;;2.60;;
8656;SDS011;4366;50.764;7.184;2023-04-15T14:46:14;3.23;;;2.93;;
8656;SDS011;4366;50.764;7.184;2023-04-15T14:51:16;2.90;;;2.70;;
8656;SDS011;4366;50.764;7.184;2023-04-15T14:56:17;3.20;;;3.00;;
8656;SDS011;4366;50.764;7.184;2023-04-15T15:01:19;2.77;;;2.57;;
8656;SDS011;4366;50.764;7.184;2023-04-15T15:06:21;2.67;;;2.47;;
8656;SDS011;4366;50.764;7.184;2023-04-15T15:11:23;2.60;;;2.40;;
8656;SDS011;4366;50.764;7.184;2023-04-15T15:16:26;2.73;;;2.53;;
8656;SDS011;4366;50.764;7.184;2023-04-15T15:21:28;2.53;;;2.33;;
8656;SDS011;4366;50.764;7.184;2023-04-15T15:26:30;2.53;;;2.33;;
8656;SDS011;4366;50.764;7.184;2023-04-15T15:31:35;2.27;;;2.17;;
8656;SDS011;4366;50.764;7.184;2023-04-15T15:36:43;2.83;;;2.63;;
8656;SDS011;4366;50.764;7.184;2023-04-15T15:41:45;2.50;;;2.30;;
8656;SDS011;4366;50.764;7.184;2023-04-15T15:46:46;2.80;;;2.50;;
8656;SDS011;4366;50.764;7.184;2023-04-15T15:51:48;2.40;;;2.30;;
8656;SDS011;4366;50.764;7.184;2023-04-15T15:56:50;2.33;;;2.20;;
8656;SDS011;4366;50.764;7.184;2023-04-15T16:01:52;2.50;;;2.30;;
8656;SDS011;4366;50.764;7.184;2023-04-15T16:06:54;2.10;;;2.00;;
8656;SDS011;4366;50.764;7.184;2023-04-15T16:11:56;2.40;;;2.20;;
8656;SDS011;4366;50.764;7.184;2023-04-15T16:16:58;1.70;;;1.60;;
8656;SDS011;4366;50.764;7.184;2023-04-15T16:21:59;1.83;;;1.70;;
8656;SDS011;4366;50.764;7.184;2023-04-15T16:27:01;2.07;;;1.87;;
8656;SDS011;4366;50.764;7.184;2023-04-15T16:32:03;2.43;;;2.23;;
8656;SDS011;4366;50.764;7.184;2023-04-15T16:37:06;1.83;;;1.73;;
8656;SDS011;4366;50.764;7.184;2023-04-15T16:42:08;1.93;;;1.83;;
8656;SDS011;4366;50.764;7.184;2023-04-15T16:47:10;2.10;;;2.00;;
8656;SDS011;4366;50.764;7.184;2023-04-15T16:52:12;2.07;;;1.87;;
8656;SDS011;4366;50.764;7.184;2023-04-15T16:57:14;2.47;;;2.27;;
8656;SDS011;4366;50.764;7.184;2023-04-15T17:02:16;2.07;;;1.97;;
8656;SDS011;4366;50.764;7.184;2023-04-15T17:07:18;1.90;;;1.80;;
8656;SDS011;4366;50.764;7.184;2023-04-15T17:12:20;2.20;;;2.00;;
8656;SDS011;4366;50.764;7.184;2023-04-15T17:17:22;2.43;;;1.90;;
8656;SDS011;4366;50.764;7.184;2023-04-15T17:22:23;2.33;;;2.13;;
8656;SDS011;4366;50.764;7.184;2023-04-15T17:27:25;2.10;;;2.00;;
8656;SDS011;4366;50.764;7.184;2023-04-15T17:32:29;2.50;;;2.30;;
8656;SDS011;4366;50.764;7.184;2023-04-15T17:37:35;2.67;;;2.50;;
8656;SDS011;4366;50.764;7.184;2023-04-15T17:42:36;2.50;;;2.30;;
8656;SDS011;4366;50.764;7.184;2023-04-15T17:47:38;2.27;;;2.13;;
8656;SDS011;4366;50.764;7.184;2023-04-15T17:52:40;2.77;;;2.57;;
8656;SDS011;4366;50.764;7.184;2023-04-15T17:57:43;3.00;;;2.63;;
8656;SDS011;4366;50.764;7.184;2023-04-15T18:02:46;3.10;;;2.80;;
8656;SDS011;4366;50.764;7.184;2023-04-15T18:07:52;2.63;;;2.43;;
8656;SDS011;4366;50.764;7.184;2023-04-15T18:12:53;3.03;;;2.73;;
8656;SDS011;4366;50.764;7.184;2023-04-15T18:17:57;3.47;;;3.17;;
8656;SDS011;4366;50.764;7.184;2023-04-15T18:22:59;2.90;;;2.70;;
8656;SDS011;4366;50.764;7.184;2023-04-15T18:28:01;2.80;;;2.60;;
8656;SDS011;4366;50.764;7.184;2023-04-15T18:33:02;3.37;;;3.07;;
8656;SDS011;4366;50.764;7.184;2023-04-15T18:38:06;3.77;;;3.47;;
8656;SDS011;4366;50.764;7.184;2023-04-15T18:43:08;3.77;;;3.47;;
8656;SDS011;4366;50.764;7.184;2023-04-15T18:48:09;3.80;;;3.47;;
8656;SDS011;4366;50.764;7.184;2023-04-15T18:53:11;4.37;;;3.97;;
8656;SDS011;4366;50.764;7.184;2023-04-15T18:58:13;3.87;;;3.50;;
8656;SDS011;4366;50.764;7.184;2023-04-15T19:03:14;4.20;;;3.53;;
8656;SDS011;4366;50.764;7.184;2023-04-15T19:08:16;4.23;;;3.90;;
8656;SDS011;4366;50.764;7.184;2023-04-15T19:13:18;3.93;;;3.60;;
8656;SDS011;4366;50.764;7.184;2023-04-15T19:18:21;5.10;;;4.60;;
8656;SDS011;4366;50.764;7.184;2023-04-15T19:23:23;4.27;;;3.87;;
8656;SDS011;4366;50.764;7.184;2023-04-15T19:28:25;4.90;;;3.50;;
8656;SDS011;4366;50.764;7.184;2023-04-15T19:33:29;4.40;;;4.00;;
8656;SDS011;4366;50.764;7.184;2023-04-15T19:38:32;5.33;;;4.73;;
8656;SDS011;4366;50.764;7.184;2023-04-15T19:43:36;6.73;;;5.00;;
8656;SDS011;4366;50.764;7.184;2023-04-15T19:48:38;5.50;;;4.97;;
8656;SDS011;4366;50.764;7.184;2023-04-15T19:53:40;7.77;;;6.57;;
8656;SDS011;4366;50.764;7.184;2023-04-15T19:58:42;4.87;;;4.47;;
8656;SDS011;4366;50.764;7.184;2023-04-15T20:03:47;5.27;;;4.77;;
8656;SDS011;4366;50.764;7.184;2023-04-15T20:08:49;5.93;;;3.90;;
8656;SDS011;4366;50.764;7.184;2023-04-15T20:13:52;4.77;;;4.17;;
8656;SDS011;4366;50.764;7.184;2023-04-15T20:18:56;5.77;;;4.90;;
8656;SDS011;4366;50.764;7.184;2023-04-15T20:23:58;4.53;;;4.10;;
8656;SDS011;4366;50.764;7.184;2023-04-15T20:29:00;5.87;;;5.27;;
8656;SDS011;4366;50.764;7.184;2023-04-15T20:34:01;5.33;;;4.83;;
8656;SDS011;4366;50.764;7.184;2023-04-15T20:39:03;5.53;;;4.63;;
8656;SDS011;4366;50.764;7.184;2023-04-15T20:44:05;5.80;;;4.97;;
8656;SDS011;4366;50.764;7.184;2023-04-15T20:49:07;5.87;;;5.17;;
8656;SDS011;4366;50.764;7.184;2023-04-15T20:54:08;4.73;;;4.23;;
8656;SDS011;4366;50.764;7.184;2023-04-15T20:59:10;5.80;;;4.73;;
8656;SDS011;4366;50.764;7.184;2023-04-15T21:04:13;6.97;;;5.53;;
8656;SDS011;4366;50.764;7.184;2023-04-15T21:09:15;7.03;;;4.73;;
8656;SDS011;4366;50.764;7.184;2023-04-15T21:14:16;6.90;;;5.63;;
8656;SDS011;4366;50.764;7.184;2023-04-15T21:19:18;7.30;;;6.00;;
8656;SDS011;4366;50.764;7.184;2023-04-15T21:24:21;8.57;;;5.47;;
8656;SDS011;4366;50.764;7.184;2023-04-15T21:29:22;8.60;;;5.87;;
8656;SDS011;4366;50.764;7.184;2023-04-15T21:34:24;8.57;;;5.80;;
8656;SDS011;4366;50.764;7.184;2023-04-15T21:39:25;7.57;;;5.47;;
8656;SDS011;4366;50.764;7.184;2023-04-15T21:44:27;8.00;;;5.83;;
8656;SDS011;4366;50.764;7.184;2023-04-15T21:49:29;6.27;;;5.40;;
8656;SDS011;4366;50.764;7.184;2023-04-15T21:54:30;6.40;;;5.23;;
8656;SDS011;4366;50.764;7.184;2023-04-15T21:59:33;6.10;;;4.77;;
8656;SDS011;4366;50.764;7.184;2023-04-15T22:04:35;5.53;;;4.70;;
8656;SDS011;4366;50.764;7.184;2023-04-15T22:09:37;6.10;;;5.27;;
8656;SDS011;4366;50.764;7.184;2023-04-15T22:14:38;5.80;;;5.03;;
8656;SDS011;4366;50.764;7.184;2023-04-15T22:19:40;6.77;;;5.03;;
8656;SDS011;4366;50.764;7.184;2023-04-15T22:24:42;7.80;;;6.10;;
8656;SDS011;4366;50.764;7.184;2023-04-15T22:29:46;7.73;;;6.50;;
8656;SDS011;4366;50.764;7.184;2023-04-15T22:34:47;7.70;;;5.37;;
8656;SDS011;4366;50.764;7.184;2023-04-15T22:39:49;7.73;;;5.10;;
8656;SDS011;4366;50.764;7.184;2023-04-15T22:44:53;7.80;;;6.10;;
8656;SDS011;4366;50.764;7.184;2023-04-15T22:49:55;5.93;;;5.07;;
8656;SDS011;4366;50.764;7.184;2023-04-15T22:54:57;7.40;;;5.27;;
8656;SDS011;4366;50.764;7.184;2023-04-15T22:59:59;8.13;;;6.03;;
8656;SDS011;4366;50.764;7.184;2023-04-15T23:05:01;10.07;;;7.50;;
8656;SDS011;4366;50.764;7.184;2023-04-15T23:10:11;7.93;;;5.63;;
8656;SDS011;4366;50.764;7.184;2023-04-15T23:15:13;9.07;;;6.30;;
8656;SDS011;4366;50.764;7.184;2023-04-15T23:20:15;7.23;;;5.47;;
8656;SDS011;4366;50.764;7.184;2023-04-15T23:25:17;9.67;;;5.67;;
8656;SDS011;4366;50.764;7.184;2023-04-15T23:30:22;7.17;;;4.70;;
8656;SDS011;4366;50.764;7.184;2023-04-15T23:35:26;6.67;;;5.20;;
8656;SDS011;4366;50.764;7.184;2023-04-15T23:40:27;6.33;;;4.90;;
8656;SDS011;4366;50.764;7.184;2023-04-15T23:45:29;8.47;;;5.17;;
8656;SDS011;4366;50.764;7.184;2023-04-15T23:50:31;9.90;;;6.60;;
8656;SDS011;4366;50.764;7.184;2023-04-15T23:55:33;8.43;;;5.37;;
